Billings, MT (59101)

7:32 AM MST on February 27, 2017 (GMT -0700)
Yellowstone RV Campground | | Change Station

Elev 3120 ft 45.76 °N, 108.48 °W | Updated 42 seconds ago

Mostly Cloudy
Mostly Cloudy
23.2 °F
Feels Like 23 °F
N
0.9
Wind Variable Wind from North
Gusts 2.5 mph

Today
High -- | Low -- °F
--% Chance of Precip.
Yesterday
High -- | Low -- °F
Precip. -- in
Pressure 29.75 in
Visibility 10.0 miles
Clouds Mostly Cloudy 700 ft
Overcast 1300 ft
Windchill 23 °F
Dew Point 8 °F
Humidity 52%
Rainfall 0.00 in
Snow Depth Not available.
6:55 AM 5:58 PM
New Moon, 1% visible
METAR KBIL 271353Z 01007KT 10SM BKN007 OVC013 M07/M08 A2963 RMK AO2 SLP073 T10671083
Pressure 29.75 in
Visibility 10.0 miles
Clouds Mostly Cloudy 700 ft
Overcast 1300 ft
Windchill 23 °F
Dew Point 8 °F
Humidity 52%
Rainfall 0.00 in
Snow Depth Not available.
6:55 AM 5:58 PM
New Moon, 1% visible
METAR KBIL 271353Z 01007KT 10SM BKN007 OVC013 M07/M08 A2963 RMK AO2 SLP073 T10671083

Get Your Daily Forecast Email!

Thanks for signing up!

Be on the lookout for a verification email in your inbox.

You'll start receiving the daily forecast at 8 AM.

×

10-Day Weather Forecast

Almanac

Astronomy

Feb. 27, 2017 Rise Set
Actual Time
Civil Twilight
Nautical Twilight
Astronomical Twilight
Moon
Length of Visible Light
Length of Day
Tomorrow will be .
, % of the Moon is Illuminated

Today's Extremes

State Highs State Lows

Community

WunderPhotos

Upload Photos

1,962,540 photos uploaded!

WunderBlog® & News

Nearby

Air Quality

  Air Quality AQ Index Pollutant
Not available.

Snow Depth

Station Depth Elevation

Earthquake Activity

City Distance Mag. Time & Date
Minimum magnitude displayed is 2.5.

Coastal Water Temperatures

Place Temperature

Stations

Nearby Weather Stations

Station Location Temp. Windchill Dew Point Humidity Wind Precip. Elev Updated Type
                   

Watches & Warnings

There are currently no watches in effect.